AirNav   Air Wisconsin pilot careers
 
 1603 users online  

TS81 Flanders Field Airport
Lott, Texas, USA


FAA INFORMATION EFFECTIVE 12 OCTOBER 2017

Location

FAA Identifier: TS81
Lat/Long: 31-09-26.8000N / 097-04-30.9000W
31-09.446667N / 097-04.515000W
31.1574444 / -97.0752500
(estimated)
Elevation: 460 ft. / 140 m (estimated)
From city: 3 miles SW of LOTT, TX
Time zone: UTC +0 (year round; does not observe DST)
Zip code: 76656

Airport Operations

Airport use: Private use. Permission required prior to landing
Activation date: 09/2017
Control tower: no
ARTCC: FORT WORTH CENTER
FSS: FORT WORTH FLIGHT SERVICE STATION
Attendance: 
Segmented circle: no

Airport Communications

WX AWOS-3PT at TPL (17 nm W): 134.975 (254-774-8337)
WX AWOS-3PT at T35 (18 nm S): 124.1 (254-605-0856)

Nearby radio navigation aids

VOR radial/distance  VOR name  Freq  Var
TPLr091/18.2TEMPLE VOR/DME110.4009E
ACTr153/31.9WACO VORTAC115.3009E
GNLr222/37.1GROESBECK VOR/DME108.8005E
GRKr072/38.7GRAY VOR/DME111.8007E

 
NDB name  Hdg/Dist  Freq  Var  ID
ROBINSON174/20.840007EROB .-. --- -...
HOOD080/32.534707EHLR .... .-.. .-.

Airport Services

Runway Information

Runway 17/35

Dimensions: 2265 x 60 ft. / 690 x 18 m
Surface: turf
RUNWAY 17  RUNWAY 35
Traffic pattern: leftleft

Airport Ownership and Management from official FAA records

Ownership: Privately-owned
Owner: MATTHEW WITT
402 COUNTY ROAD 489
LOTT, TX 76656
Phone 254-495-7963
WINGANDPROP@YAHOO.COM
Manager: MATTHEW WITT
483 KASH DERRICK DR
CHINA SPRING, TX 76633
Phone 254-495-7963
WINGANDPROP@YAHOO.COM

Instrument Procedures

There are no published instrument procedures at TS81.

Some nearby airports with instrument procedures:

T15 - Marlin Airport (16 nm NE)
KTPL - Draughon-Miller Central Texas Regional Airport (17 nm W)
KPWG - Mc Gregor Executive Airport (23 nm NW)
KACT - Waco Regional Airport (28 nm N)
KCNW - TSTC Waco Airport (29 nm N)
 
Loc | Ops | Rwys | IFR | FBO | Links
Com | Nav | Svcs | Stats | Notes


 
Aerial photo
No photo
 
Airport distance calculator
Flying to Flanders Field Airport? Find the distance to fly.

From to TS81

Sunrise and sunset
Times for 18-Oct-2017
 Zulu (UTC)
Morning civil twilight12:10
Sunrise12:34
Sunset23:53
Evening civil twilight00:17

Current date and time
Zulu (UTC)  18-Oct-2017 15:04:35
 
METAR
KTPL 
17nm W 
181451Z AUTO 17008KT 10SM CLR 17/08 A3019 RMK AO2 SLP236 T01720078 53010
KT35 
18nm S 
181455Z AUTO 20004KT 10SM CLR 17/09 A3019 RMK AO2 T01730090
KPWG 
22nm NW 
181456Z AUTO 19006KT 10SM CLR 19/08 A3019 RMK AO2 SLP236 T01890083 53009
KCNW 
29nm N 
181455Z 16004KT 10SM SKC 16/09 A3020
KACT 
29nm N 
181451Z 19006KT 10SM CLR 18/09 A3019 RMK AO2 SLP220 T01780089 53010
KLHB 
29nm SE 
181455Z AUTO 14005KT 10SM CLR 16/10 A3020 RMK AO2 T01620100
KILE 
31nm W 
181456Z AUTO 17007KT 10SM CLR 18/09 A3019 RMK AO2 SLP237 T01780089 53009
KHLR 
33nm W 
181458Z AUTO 19007KT 10SM CLR 18/08 A3015 RMK AO2 SLP204 T01810084 52008
TAF
KACT 
29nm N 
181120Z 1812/1912 16007KT P6SM SKC
NOTAMs
Click for the latest NOTAMs
NOTAMs are issued by the DoD/FAA and will open in a separate window not controlled by AirNav.

 

 
 

Would you like to see your business listed on this page?

 If your business provides an interesting product or service to pilots, flight crews, aircraft, or users of the Flanders Field Airport, you should consider listing it here.  To start the listing process, click on the button below
 
Add a business
 

Other Pages about Flanders Field Airport

Update a link
 
Copyright © AirNav, LLC. All rights reserved. Privacy Policy  Contact